Flight Briefing for CMB829

Departure Arrival
KeflavĂ­k International Airport (BIKF)
Click to view FAA NOTAMS
Ramstein Air Force Base (ETAR)
Click to view FAA NOTAMS
Departure Time Arrival Time
N/A N/A
Aircraft Distance
B757-200SF 1305nm
Departure METAR Arrival METAR
BIKF 260030Z 22029KT 9999 VCSH BKN015 06/03 Q1001 ETAR 252356Z AUTO 00000KT 9999 BKN050 04/02 A3036 RMK AO2 RAB11E21DZB21E22 SLP291 P0000 60005 T00360015 10047 20035 52014 $
Suggested Route
OSKUM2C OSKUM ROSTI G3 MY G11 PEMOS SUM L7 LONAM UL7 SPY UN852 LNO PFF


View recent IFR Routes data
Notes
USTRANSCOM CONTRACT FLIGHT

Charts and Procedures

Charts for BIKF
No chart available
Charts for ETAR
No chart available

Windy.com Weather Map